Fort Dodge Regional Airport Fort Dodge US
ICAO: KFOD
IATA: FOD
Category: Medium
Scheduled Services: Yes

Elevation: 1156 ft
TransAlt. 18000 ft.

Airport Communications:
AWOS 3:118.775
MINNEAPOLIS CNTR:134
RDO:122.3
CTAF/UNICOM:122.95

KFOD Zoom In..

Runways:

(A) RW 06 length 6547 ft width 150 ft
ILS 109.10 / hdg 63

(B) RW 12 length 5301 ft width 100 ft
---- / hdg 125

(C) RW 24 length 6547 ft width 150 ft
---- / hdg 243

(D) RW 30 length 5301 ft width 100 ft
---- / hdg 305

Location; KFOD
Day. 04 / Time. 12.56 Zulu
* Altimeter: 29.95
* Temperature: -02° c. -28.4°f.
* Wind from: 300° Speed 06 kn.
Dewpoint: -06° c.
Visibility: 10 Statute Miles.
Clouds: Clear (automated report).

KFOD 041256Z AUTO 30006KT 10SM CLR M02/M06 A2995 RMK AO2 SLP185 T10221056 FZRANO

Going to: --> -->


Wind From 300°
Speed 06 kn.

 
 
jpsmedia worldairports.se 2020   terms of use